sensor_id;sensor_type;location;lat;lon;timestamp;pressure;altitude;pressure_sealevel;temperature;humidity
42603;BME280;28233;55.748;48.752;2023-08-31T00:01:55;99057.06;;;11.33;93.32
42603;BME280;28233;55.748;48.752;2023-08-31T00:03:59;99051.09;;;11.31;93.66
42603;BME280;28233;55.748;48.752;2023-08-31T00:06:02;99054.19;;;11.29;93.57
42603;BME280;28233;55.748;48.752;2023-08-31T00:08:10;99057.75;;;11.30;94.17
42603;BME280;28233;55.748;48.752;2023-08-31T00:10:16;99055.00;;;11.30;94.41
42603;BME280;28233;55.748;48.752;2023-08-31T00:12:19;99061.19;;;11.27;93.96
42603;BME280;28233;55.748;48.752;2023-08-31T00:14:23;99057.97;;;11.25;94.65
42603;BME280;28233;55.748;48.752;2023-08-31T00:16:26;99059.91;;;11.24;94.38
42603;BME280;28233;55.748;48.752;2023-08-31T00:18:29;99056.22;;;11.20;94.78
42603;BME280;28233;55.748;48.752;2023-08-31T00:20:32;99064.94;;;11.22;95.05
42603;BME280;28233;55.748;48.752;2023-08-31T00:22:36;99057.81;;;11.21;94.85
42603;BME280;28233;55.748;48.752;2023-08-31T00:24:38;99057.00;;;11.20;95.28
42603;BME280;28233;55.748;48.752;2023-08-31T00:26:41;99053.00;;;11.18;95.11
42603;BME280;28233;55.748;48.752;2023-08-31T00:28:44;99056.53;;;11.18;95.30
42603;BME280;28233;55.748;48.752;2023-08-31T00:30:47;99064.31;;;11.16;95.77
42603;BME280;28233;55.748;48.752;2023-08-31T00:32:51;99065.00;;;11.13;95.87
42603;BME280;28233;55.748;48.752;2023-08-31T00:34:56;99063.25;;;11.09;95.75
42603;BME280;28233;55.748;48.752;2023-08-31T00:37:00;99063.25;;;11.09;96.30
42603;BME280;28233;55.748;48.752;2023-08-31T00:39:03;99070.72;;;11.08;96.14
42603;BME280;28233;55.748;48.752;2023-08-31T00:41:12;99066.69;;;11.06;96.24
42603;BME280;28233;55.748;48.752;2023-08-31T00:43:16;99067.00;;;11.04;96.25
42603;BME280;28233;55.748;48.752;2023-08-31T00:45:20;99066.22;;;11.04;96.63
42603;BME280;28233;55.748;48.752;2023-08-31T00:47:24;99063.00;;;11.02;96.49
42603;BME280;28233;55.748;48.752;2023-08-31T00:49:28;99062.19;;;11.01;96.81
42603;BME280;28233;55.748;48.752;2023-08-31T00:51:31;99079.97;;;11.04;96.38
42603;BME280;28233;55.748;48.752;2023-08-31T00:53:34;99076.75;;;11.02;96.13
42603;BME280;28233;55.748;48.752;2023-08-31T00:55:37;99076.28;;;10.99;96.42
42603;BME280;28233;55.748;48.752;2023-08-31T00:57:43;99077.41;;;10.98;96.39
42603;BME280;28233;55.748;48.752;2023-08-31T00:59:47;99076.94;;;10.96;96.65
42603;BME280;28233;55.748;48.752;2023-08-31T01:04:20;99073.84;;;10.98;96.88
42603;BME280;28233;55.748;48.752;2023-08-31T01:06:47;99079.69;;;10.96;96.96
42603;BME280;28233;55.748;48.752;2023-08-31T01:08:59;99082.28;;;10.93;97.03
42603;BME280;28233;55.748;48.752;2023-08-31T01:11:13;99074.72;;;10.90;96.66
42603;BME280;28233;55.748;48.752;2023-08-31T01:13:24;99082.38;;;10.84;97.17
42603;BME280;28233;55.748;48.752;2023-08-31T01:15:27;99075.13;;;10.79;97.25
42603;BME280;28233;55.748;48.752;2023-08-31T01:17:39;99077.72;;;10.76;97.41
42603;BME280;28233;55.748;48.752;2023-08-31T01:19:55;99082.28;;;10.72;97.77
42603;BME280;28233;55.748;48.752;2023-08-31T01:22:00;99080.69;;;10.71;98.17
42603;BME280;28233;55.748;48.752;2023-08-31T01:24:07;99077.47;;;10.69;98.21
42603;BME280;28233;55.748;48.752;2023-08-31T01:26:10;99085.22;;;10.67;98.50
42603;BME280;28233;55.748;48.752;2023-08-31T01:28:14;99081.69;;;10.66;98.63
42603;BME280;28233;55.748;48.752;2023-08-31T01:30:17;99081.19;;;10.64;98.54
42603;BME280;28233;55.748;48.752;2023-08-31T01:32:20;99079.94;;;10.62;99.18
42603;BME280;28233;55.748;48.752;2023-08-31T01:34:35;99085.41;;;10.62;98.94
42603;BME280;28233;55.748;48.752;2023-08-31T01:36:45;99079.59;;;10.63;98.89
42603;BME280;28233;55.748;48.752;2023-08-31T01:38:54;99086.09;;;10.58;98.80
42603;BME280;28233;55.748;48.752;2023-08-31T01:41:07;99073.84;;;10.56;98.66
42603;BME280;28233;55.748;48.752;2023-08-31T01:43:13;99087.09;;;10.54;98.54
42603;BME280;28233;55.748;48.752;2023-08-31T01:45:19;99089.69;;;10.50;99.61
42603;BME280;28233;55.748;48.752;2023-08-31T01:47:25;99084.88;;;10.47;99.18
42603;BME280;28233;55.748;48.752;2023-08-31T01:49:28;99081.16;;;10.43;99.15
42603;BME280;28233;55.748;48.752;2023-08-31T01:51:31;99079.56;;;10.42;99.26
42603;BME280;28233;55.748;48.752;2023-08-31T01:53:33;99087.81;;;10.42;99.65
42603;BME280;28233;55.748;48.752;2023-08-31T01:55:37;99090.56;;;10.42;99.37
42603;BME280;28233;55.748;48.752;2023-08-31T01:57:40;99096.84;;;10.43;99.14
42603;BME280;28233;55.748;48.752;2023-08-31T01:59:42;99096.03;;;10.42;98.75
42603;BME280;28233;55.748;48.752;2023-08-31T02:01:45;99105.09;;;10.43;98.94
42603;BME280;28233;55.748;48.752;2023-08-31T02:03:48;99094.41;;;10.41;99.25
42603;BME280;28233;55.748;48.752;2023-08-31T02:05:51;99103.94;;;10.44;99.14
42603;BME280;28233;55.748;48.752;2023-08-31T02:07:53;99098.59;;;10.47;98.68
42603;BME280;28233;55.748;48.752;2023-08-31T02:09:56;99100.31;;;10.61;98.90
42603;BME280;28233;55.748;48.752;2023-08-31T02:11:59;99094.13;;;10.64;98.29
42603;BME280;28233;55.748;48.752;2023-08-31T02:14:01;99098.97;;;10.67;97.42
42603;BME280;28233;55.748;48.752;2023-08-31T02:16:06;99099.97;;;10.62;97.19
42603;BME280;28233;55.748;48.752;2023-08-31T02:18:08;99089.97;;;10.57;97.58
42603;BME280;28233;55.748;48.752;2023-08-31T02:20:11;99105.16;;;10.55;97.32
42603;BME280;28233;55.748;48.752;2023-08-31T02:22:16;99104.69;;;10.53;97.50
42603;BME280;28233;55.748;48.752;2023-08-31T02:24:19;99111.66;;;10.50;97.97
42603;BME280;28233;55.748;48.752;2023-08-31T02:26:22;99097.44;;;10.48;98.00
42603;BME280;28233;55.748;48.752;2023-08-31T02:28:25;99114.75;;;10.49;97.88
42603;BME280;28233;55.748;48.752;2023-08-31T02:30:28;99108.44;;;10.48;97.79
42603;BME280;28233;55.748;48.752;2023-08-31T02:32:30;99120.69;;;10.51;97.90
42603;BME280;28233;55.748;48.752;2023-08-31T02:34:33;99120.69;;;10.51;97.35
42603;BME280;28233;55.748;48.752;2023-08-31T02:36:36;99109.06;;;10.54;96.87
42603;BME280;28233;55.748;48.752;2023-08-31T02:38:39;99126.16;;;10.60;96.85
42603;BME280;28233;55.748;48.752;2023-08-31T02:40:41;99127.31;;;10.58;96.22
42603;BME280;28233;55.748;48.752;2023-08-31T02:42:44;99133.72;;;10.63;95.88
42603;BME280;28233;55.748;48.752;2023-08-31T02:44:47;99138.09;;;10.64;96.28
42603;BME280;28233;55.748;48.752;2023-08-31T02:46:54;99135.00;;;10.65;96.27
42603;BME280;28233;55.748;48.752;2023-08-31T02:48:56;99122.09;;;10.66;96.37
42603;BME280;28233;55.748;48.752;2023-08-31T02:50:59;99138.22;;;10.67;96.46
42603;BME280;28233;55.748;48.752;2023-08-31T02:53:06;99139.84;;;10.68;96.36
42603;BME280;28233;55.748;48.752;2023-08-31T02:55:08;99138.69;;;10.69;96.44
42603;BME280;28233;55.748;48.752;2023-08-31T02:57:11;99145.94;;;10.74;96.58
42603;BME280;28233;55.748;48.752;2023-08-31T02:59:14;99135.13;;;10.77;96.27
42603;BME280;28233;55.748;48.752;2023-08-31T03:01:16;99137.66;;;10.83;96.54
42603;BME280;28233;55.748;48.752;2023-08-31T03:03:19;99138.63;;;10.87;96.59
42603;BME280;28233;55.748;48.752;2023-08-31T03:05:22;99156.88;;;10.91;96.62
42603;BME280;28233;55.748;48.752;2023-08-31T03:07:25;99149.53;;;10.95;96.42
42603;BME280;28233;55.748;48.752;2023-08-31T03:09:27;99156.59;;;11.05;96.26
42603;BME280;28233;55.748;48.752;2023-08-31T03:11:30;99156.75;;;11.09;96.17
42603;BME280;28233;55.748;48.752;2023-08-31T03:13:33;99162.50;;;11.16;96.33
42603;BME280;28233;55.748;48.752;2023-08-31T03:15:36;99157.16;;;11.19;96.02
42603;BME280;28233;55.748;48.752;2023-08-31T03:17:39;99160.81;;;11.24;95.25
42603;BME280;28233;55.748;48.752;2023-08-31T03:19:41;99165.00;;;11.30;94.49
42603;BME280;28233;55.748;48.752;2023-08-31T03:21:44;99160.91;;;11.36;93.95
42603;BME280;28233;55.748;48.752;2023-08-31T03:23:47;99163.47;;;11.41;93.40
42603;BME280;28233;55.748;48.752;2023-08-31T03:25:49;99155.31;;;11.45;93.03
42603;BME280;28233;55.748;48.752;2023-08-31T03:27:52;99165.47;;;11.53;92.74
42603;BME280;28233;55.748;48.752;2023-08-31T03:29:55;99164.78;;;11.56;92.52
42603;BME280;28233;55.748;48.752;2023-08-31T03:31:59;99164.09;;;11.59;91.92
42603;BME280;28233;55.748;48.752;2023-08-31T03:34:02;99158.75;;;11.62;91.72
42603;BME280;28233;55.748;48.752;2023-08-31T03:36:05;99167.47;;;11.64;91.06
42603;BME280;28233;55.748;48.752;2023-08-31T03:38:07;99167.38;;;11.73;90.88
42603;BME280;28233;55.748;48.752;2023-08-31T03:40:10;99166.25;;;11.74;89.86
42603;BME280;28233;55.748;48.752;2023-08-31T03:42:12;99160.84;;;11.78;89.68
42603;BME280;28233;55.748;48.752;2023-08-31T03:44:15;99160.31;;;11.84;90.23
42603;BME280;28233;55.748;48.752;2023-08-31T03:46:18;99159.00;;;11.91;90.21
42603;BME280;28233;55.748;48.752;2023-08-31T03:48:20;99157.97;;;11.95;90.27
42603;BME280;28233;55.748;48.752;2023-08-31T03:50:23;99173.34;;;11.96;90.34
42603;BME280;28233;55.748;48.752;2023-08-31T03:52:26;99164.06;;;12.01;90.52
42603;BME280;28233;55.748;48.752;2023-08-31T03:54:28;99167.75;;;12.05;89.31
42603;BME280;28233;55.748;48.752;2023-08-31T03:56:31;99156.66;;;12.14;88.71
42603;BME280;28233;55.748;48.752;2023-08-31T03:58:34;99167.78;;;12.17;86.08
42603;BME280;28233;55.748;48.752;2023-08-31T04:00:37;99163.44;;;12.29;84.90
42603;BME280;28233;55.748;48.752;2023-08-31T04:02:42;99162.19;;;12.38;84.42
42603;BME280;28233;55.748;48.752;2023-08-31T04:04:47;99162.09;;;12.47;83.70
42603;BME280;28233;55.748;48.752;2023-08-31T04:06:49;99163.13;;;12.55;82.83
42603;BME280;28233;55.748;48.752;2023-08-31T04:08:52;99174.06;;;12.63;82.31
42603;BME280;28233;55.748;48.752;2023-08-31T04:10:54;99173.50;;;12.70;82.12
42603;BME280;28233;55.748;48.752;2023-08-31T04:12:57;99169.44;;;12.67;81.93
42603;BME280;28233;55.748;48.752;2023-08-31T04:15:00;99178.53;;;12.80;81.62
42603;BME280;28233;55.748;48.752;2023-08-31T04:17:06;99174.03;;;12.88;81.71
42603;BME280;28233;55.748;48.752;2023-08-31T04:19:09;99175.28;;;12.90;82.87
42603;BME280;28233;55.748;48.752;2023-08-31T04:21:12;99174.97;;;12.92;83.07
42603;BME280;28233;55.748;48.752;2023-08-31T04:23:15;99171.41;;;12.92;83.46
42603;BME280;28233;55.748;48.752;2023-08-31T04:25:18;99174.25;;;12.95;83.86
42603;BME280;28233;55.748;48.752;2023-08-31T04:27:20;99178.75;;;13.00;83.69
42603;BME280;28233;55.748;48.752;2023-08-31T04:29:23;99176.09;;;13.03;83.64
42603;BME280;28233;55.748;48.752;2023-08-31T04:31:26;99172.19;;;13.04;83.86
42603;BME280;28233;55.748;48.752;2023-08-31T04:33:28;99180.91;;;13.06;83.65
42603;BME280;28233;55.748;48.752;2023-08-31T04:35:31;99181.84;;;13.10;82.96
42603;BME280;28233;55.748;48.752;2023-08-31T04:37:33;99181.47;;;13.12;81.33
42603;BME280;28233;55.748;48.752;2023-08-31T04:39:36;99182.53;;;13.20;80.98
42603;BME280;28233;55.748;48.752;2023-08-31T04:41:39;99171.94;;;13.22;81.21
42603;BME280;28233;55.748;48.752;2023-08-31T04:43:41;99176.44;;;13.26;81.13
42603;BME280;28233;55.748;48.752;2023-08-31T04:45:44;99180.56;;;13.32;81.60
42603;BME280;28233;55.748;48.752;2023-08-31T04:47:46;99172.88;;;13.38;81.51
42603;BME280;28233;55.748;48.752;2023-08-31T04:49:51;99181.94;;;13.39;79.37
42603;BME280;28233;55.748;48.752;2023-08-31T04:51:55;99182.16;;;13.46;79.55
42603;BME280;28233;55.748;48.752;2023-08-31T04:53:58;99174.88;;;13.53;79.62
42603;BME280;28233;55.748;48.752;2023-08-31T04:56:01;99188.78;;;13.57;77.52
42603;BME280;28233;55.748;48.752;2023-08-31T04:58:04;99188.16;;;13.64;77.41
42603;BME280;28233;55.748;48.752;2023-08-31T05:00:06;99188.16;;;13.64;76.91
42603;BME280;28233;55.748;48.752;2023-08-31T05:02:11;99186.06;;;13.73;77.92
42603;BME280;28233;55.748;48.752;2023-08-31T05:04:14;99196.53;;;13.80;76.04
42603;BME280;28233;55.748;48.752;2023-08-31T05:06:16;99190.06;;;13.88;76.21
42603;BME280;28233;55.748;48.752;2023-08-31T05:08:19;99185.22;;;13.85;75.79
42603;BME280;28233;55.748;48.752;2023-08-31T05:10:21;99188.56;;;13.90;75.86
42603;BME280;28233;55.748;48.752;2023-08-31T05:12:25;99183.38;;;13.89;75.67
42603;BME280;28233;55.748;48.752;2023-08-31T05:14:27;99189.81;;;13.93;75.58
42603;BME280;28233;55.748;48.752;2023-08-31T05:16:30;99174.13;;;13.97;75.32
42603;BME280;28233;55.748;48.752;2023-08-31T05:18:32;99173.09;;;14.02;74.97
42603;BME280;28233;55.748;48.752;2023-08-31T05:20:35;99172.91;;;14.10;74.06
42603;BME280;28233;55.748;48.752;2023-08-31T05:22:38;99180.25;;;14.19;73.76
42603;BME280;28233;55.748;48.752;2023-08-31T05:24:40;99178.47;;;14.26;73.80
42603;BME280;28233;55.748;48.752;2023-08-31T05:26:43;99171.53;;;14.32;72.72
42603;BME280;28233;55.748;48.752;2023-08-31T05:28:46;99180.00;;;14.40;72.11
42603;BME280;28233;55.748;48.752;2023-08-31T05:30:50;99173.41;;;14.44;73.20
42603;BME280;28233;55.748;48.752;2023-08-31T05:32:53;99176.91;;;14.57;72.71
42603;BME280;28233;55.748;48.752;2023-08-31T05:34:56;99179.13;;;14.67;72.12
42603;BME280;28233;55.748;48.752;2023-08-31T05:36:58;99184.13;;;14.77;72.11
42603;BME280;28233;55.748;48.752;2023-08-31T05:39:01;99180.97;;;14.79;71.33
42603;BME280;28233;55.748;48.752;2023-08-31T05:41:08;99174.81;;;14.86;70.66
42603;BME280;28233;55.748;48.752;2023-08-31T05:43:13;99178.84;;;14.88;71.28
42603;BME280;28233;55.748;48.752;2023-08-31T05:45:16;99184.69;;;15.02;71.24
42603;BME280;28233;55.748;48.752;2023-08-31T05:47:18;99174.19;;;15.08;70.44
42603;BME280;28233;55.748;48.752;2023-08-31T05:49:21;99181.13;;;15.18;70.14
42603;BME280;28233;55.748;48.752;2023-08-31T05:51:24;99179.44;;;15.13;69.94
42603;BME280;28233;55.748;48.752;2023-08-31T05:53:27;99177.25;;;15.22;70.70
42603;BME280;28233;55.748;48.752;2023-08-31T05:55:30;99181.44;;;15.32;71.02
42603;BME280;28233;55.748;48.752;2023-08-31T05:57:32;99180.06;;;15.42;71.54
42603;BME280;28233;55.748;48.752;2023-08-31T05:59:35;99172.44;;;15.55;71.79
42603;BME280;28233;55.748;48.752;2023-08-31T06:01:37;99183.22;;;15.60;71.36
42603;BME280;28233;55.748;48.752;2023-08-31T06:03:40;99185.34;;;15.67;70.42
42603;BME280;28233;55.748;48.752;2023-08-31T06:05:43;99179.06;;;15.70;70.74
42603;BME280;28233;55.748;48.752;2023-08-31T06:07:45;99174.13;;;15.79;70.39
42603;BME280;28233;55.748;48.752;2023-08-31T06:09:48;99175.38;;;15.81;70.65
42603;BME280;28233;55.748;48.752;2023-08-31T06:11:50;99173.19;;;15.91;70.82
42603;BME280;28233;55.748;48.752;2023-08-31T06:13:53;99176.75;;;15.91;69.60
42603;BME280;28233;55.748;48.752;2023-08-31T06:15:56;99169.91;;;15.85;69.42
42603;BME280;28233;55.748;48.752;2023-08-31T06:18:00;99168.25;;;15.80;70.01
42603;BME280;28233;55.748;48.752;2023-08-31T06:20:03;99173.53;;;15.89;70.38
42603;BME280;28233;55.748;48.752;2023-08-31T06:22:08;99175.59;;;15.92;70.87
42603;BME280;28233;55.748;48.752;2023-08-31T06:24:10;99173.63;;;15.93;70.06
42603;BME280;28233;55.748;48.752;2023-08-31T06:26:15;99167.81;;;16.01;70.32
42603;BME280;28233;55.748;48.752;2023-08-31T06:28:18;99168.00;;;16.09;70.32
42603;BME280;28233;55.748;48.752;2023-08-31T06:30:20;99170.50;;;16.17;70.28
42603;BME280;28233;55.748;48.752;2023-08-31T06:32:23;99168.31;;;16.26;67.49
42603;BME280;28233;55.748;48.752;2023-08-31T06:34:26;99164.63;;;16.42;68.61
42603;BME280;28233;55.748;48.752;2023-08-31T06:36:28;99163.13;;;16.48;63.91
42603;BME280;28233;55.748;48.752;2023-08-31T06:38:31;99172.00;;;16.57;63.12
42603;BME280;28233;55.748;48.752;2023-08-31T06:40:33;99169.03;;;16.69;62.15
42603;BME280;28233;55.748;48.752;2023-08-31T06:42:37;99165.97;;;16.75;60.06
42603;BME280;28233;55.748;48.752;2023-08-31T06:44:40;99162.44;;;16.78;57.56
42603;BME280;28233;55.748;48.752;2023-08-31T06:46:42;99152.13;;;16.78;56.35
42603;BME280;28233;55.748;48.752;2023-08-31T06:48:45;99155.91;;;16.89;57.31
42603;BME280;28233;55.748;48.752;2023-08-31T06:50:48;99155.16;;;16.93;55.18
42603;BME280;28233;55.748;48.752;2023-08-31T06:52:50;99155.66;;;16.98;55.29
42603;BME280;28233;55.748;48.752;2023-08-31T06:54:53;99162.03;;;17.02;55.45
42603;BME280;28233;55.748;48.752;2023-08-31T06:56:59;99161.31;;;17.05;53.88
42603;BME280;28233;55.748;48.752;2023-08-31T06:59:02;99152.66;;;17.10;54.77
42603;BME280;28233;55.748;48.752;2023-08-31T07:01:08;99152.00;;;17.21;54.75
42603;BME280;28233;55.748;48.752;2023-08-31T07:03:11;99160.06;;;17.29;55.39
42603;BME280;28233;55.748;48.752;2023-08-31T07:05:14;99158.97;;;17.38;54.49
42603;BME280;28233;55.748;48.752;2023-08-31T07:07:17;99167.38;;;17.45;53.46
42603;BME280;28233;55.748;48.752;2023-08-31T07:09:20;99165.72;;;17.37;52.66
42603;BME280;28233;55.748;48.752;2023-08-31T07:11:22;99156.63;;;17.40;53.30
42603;BME280;28233;55.748;48.752;2023-08-31T07:13:25;99154.59;;;17.37;52.85
42603;BME280;28233;55.748;48.752;2023-08-31T07:15:28;99161.84;;;17.45;53.21
42603;BME280;28233;55.748;48.752;2023-08-31T07:17:33;99155.16;;;17.49;52.46
42603;BME280;28233;55.748;48.752;2023-08-31T07:19:36;99168.91;;;17.39;52.67
42603;BME280;28233;55.748;48.752;2023-08-31T07:21:39;99166.16;;;17.42;52.87
42603;BME280;28233;55.748;48.752;2023-08-31T07:23:42;99169.34;;;17.41;52.89
42603;BME280;28233;55.748;48.752;2023-08-31T07:25:44;99170.50;;;17.40;52.57
42603;BME280;28233;55.748;48.752;2023-08-31T07:27:47;99175.31;;;17.43;53.12
42603;BME280;28233;55.748;48.752;2023-08-31T07:29:50;99164.72;;;17.52;53.36
42603;BME280;28233;55.748;48.752;2023-08-31T07:31:53;99158.13;;;17.64;53.74
42603;BME280;28233;55.748;48.752;2023-08-31T07:33:55;99170.56;;;17.73;53.23
42603;BME280;28233;55.748;48.752;2023-08-31T07:35:58;99171.50;;;17.85;52.60
42603;BME280;28233;55.748;48.752;2023-08-31T07:38:02;99171.53;;;17.88;51.01
42603;BME280;28233;55.748;48.752;2023-08-31T07:40:06;99172.34;;;17.89;50.59
42603;BME280;28233;55.748;48.752;2023-08-31T07:42:12;99176.81;;;17.97;50.64
42603;BME280;28233;55.748;48.752;2023-08-31T07:44:15;99169.38;;;18.08;50.87
42603;BME280;28233;55.748;48.752;2023-08-31T07:46:18;99172.25;;;18.15;50.38
42603;BME280;28233;55.748;48.752;2023-08-31T07:48:20;99176.97;;;18.11;50.28
42603;BME280;28233;55.748;48.752;2023-08-31T07:50:23;99172.16;;;18.08;50.03
42603;BME280;28233;55.748;48.752;2023-08-31T07:52:26;99171.34;;;18.08;49.81
42603;BME280;28233;55.748;48.752;2023-08-31T07:54:29;99168.66;;;18.15;49.45
42603;BME280;28233;55.748;48.752;2023-08-31T07:56:31;99175.84;;;18.20;49.09
42603;BME280;28233;55.748;48.752;2023-08-31T07:58:34;99171.06;;;18.20;49.31
42603;BME280;28233;55.748;48.752;2023-08-31T08:00:37;99180.25;;;18.24;49.37
42603;BME280;28233;55.748;48.752;2023-08-31T08:02:40;99177.56;;;18.31;49.24
42603;BME280;28233;55.748;48.752;2023-08-31T08:04:45;99183.22;;;18.42;48.95
42603;BME280;28233;55.748;48.752;2023-08-31T08:06:49;99174.97;;;18.53;49.30
42603;BME280;28233;55.748;48.752;2023-08-31T08:08:53;99168.31;;;18.65;48.27
42603;BME280;28233;55.748;48.752;2023-08-31T08:10:55;99168.78;;;18.70;48.11
42603;BME280;28233;55.748;48.752;2023-08-31T08:12:58;99169.94;;;18.69;46.90
42603;BME280;28233;55.748;48.752;2023-08-31T08:15:01;99164.78;;;18.68;46.96
42603;BME280;28233;55.748;48.752;2023-08-31T08:17:05;99168.00;;;18.73;47.39
42603;BME280;28233;55.748;48.752;2023-08-31T08:19:08;99175.97;;;18.75;47.35
42603;BME280;28233;55.748;48.752;2023-08-31T08:21:11;99173.94;;;18.72;47.11
42603;BME280;28233;55.748;48.752;2023-08-31T08:23:13;99176.66;;;18.65;46.95
42603;BME280;28233;55.748;48.752;2023-08-31T08:25:16;99167.59;;;18.71;47.44
42603;BME280;28233;55.748;48.752;2023-08-31T08:27:19;99170.06;;;18.80;47.95
42603;BME280;28233;55.748;48.752;2023-08-31T08:29:22;99169.75;;;18.89;48.02
42603;BME280;28233;55.748;48.752;2023-08-31T08:31:25;99157.91;;;19.03;47.77
42603;BME280;28233;55.748;48.752;2023-08-31T08:33:28;99172.22;;;19.05;47.36
42603;BME280;28233;55.748;48.752;2023-08-31T08:35:32;99162.72;;;19.09;48.03
42603;BME280;28233;55.748;48.752;2023-08-31T08:37:35;99149.56;;;19.06;47.43
42603;BME280;28233;55.748;48.752;2023-08-31T08:39:37;99155.97;;;19.10;47.49
42603;BME280;28233;55.748;48.752;2023-08-31T08:41:42;99161.22;;;19.22;47.53
42603;BME280;28233;55.748;48.752;2023-08-31T08:43:48;99153.69;;;19.27;47.20
42603;BME280;28233;55.748;48.752;2023-08-31T08:46:04;99158.47;;;19.26;46.11
42603;BME280;28233;55.748;48.752;2023-08-31T08:48:18;99161.63;;;19.28;46.62
42603;BME280;28233;55.748;48.752;2023-08-31T08:50:35;99156.06;;;19.28;46.65
42603;BME280;28233;55.748;48.752;2023-08-31T08:52:48;99160.88;;;19.35;46.85
42603;BME280;28233;55.748;48.752;2023-08-31T08:54:56;99156.53;;;19.41;46.84
42603;BME280;28233;55.748;48.752;2023-08-31T08:57:02;99148.59;;;19.47;46.36
42603;BME280;28233;55.748;48.752;2023-08-31T08:59:14;99157.75;;;19.43;46.28
42603;BME280;28233;55.748;48.752;2023-08-31T09:01:34;99150.16;;;19.33;46.50
42603;BME280;28233;55.748;48.752;2023-08-31T09:03:45;99157.69;;;19.29;47.24
42603;BME280;28233;55.748;48.752;2023-08-31T09:05:55;99147.81;;;19.42;46.39
42603;BME280;28233;55.748;48.752;2023-08-31T09:08:09;99149.00;;;19.49;46.48
42603;BME280;28233;55.748;48.752;2023-08-31T09:10:43;99144.28;;;19.60;45.82
42603;BME280;28233;55.748;48.752;2023-08-31T09:13:00;99147.91;;;19.64;45.99
42603;BME280;28233;55.748;48.752;2023-08-31T09:15:04;99146.75;;;19.72;46.20
42603;BME280;28233;55.748;48.752;2023-08-31T09:17:07;99147.22;;;19.85;45.79
42603;BME280;28233;55.748;48.752;2023-08-31T09:19:23;99152.03;;;20.02;45.62
42603;BME280;28233;55.748;48.752;2023-08-31T09:21:37;99146.06;;;20.08;45.32
42603;BME280;28233;55.748;48.752;2023-08-31T09:23:40;99156.81;;;20.02;45.22
42603;BME280;28233;55.748;48.752;2023-08-31T09:25:48;99151.59;;;19.86;45.09
42603;BME280;28233;55.748;48.752;2023-08-31T09:27:53;99139.13;;;19.65;44.86
42603;BME280;28233;55.748;48.752;2023-08-31T09:29:56;99150.75;;;19.75;45.39
42603;BME280;28233;55.748;48.752;2023-08-31T09:32:00;99158.78;;;19.94;45.33
42603;BME280;28233;55.748;48.752;2023-08-31T09:34:03;99157.59;;;19.95;44.27
42603;BME280;28233;55.748;48.752;2023-08-31T09:36:07;99152.78;;;19.89;44.77
42603;BME280;28233;55.748;48.752;2023-08-31T09:38:10;99159.56;;;19.88;44.47
42603;BME280;28233;55.748;48.752;2023-08-31T09:40:14;99161.97;;;19.96;45.36
42603;BME280;28233;55.748;48.752;2023-08-31T09:42:17;99156.47;;;20.28;45.20
42603;BME280;28233;55.748;48.752;2023-08-31T09:44:21;99143.72;;;20.38;44.68
42603;BME280;28233;55.748;48.752;2023-08-31T09:46:24;99155.31;;;20.44;44.20
42603;BME280;28233;55.748;48.752;2023-08-31T09:48:27;99149.72;;;20.44;44.38
42603;BME280;28233;55.748;48.752;2023-08-31T09:50:32;99144.56;;;20.57;43.81
42603;BME280;28233;55.748;48.752;2023-08-31T09:52:37;99149.75;;;20.62;42.94
42603;BME280;28233;55.748;48.752;2023-08-31T09:54:42;99150.56;;;20.69;43.30
42603;BME280;28233;55.748;48.752;2023-08-31T09:56:47;99148.53;;;20.92;43.05
42603;BME280;28233;55.748;48.752;2023-08-31T09:58:50;99141.34;;;20.83;42.44
42603;BME280;28233;55.748;48.752;2023-08-31T10:00:53;99135.00;;;20.61;43.34
42603;BME280;28233;55.748;48.752;2023-08-31T10:03:00;99148.50;;;20.38;44.09
42603;BME280;28233;55.748;48.752;2023-08-31T10:05:03;99144.09;;;20.26;44.63
42603;BME280;28233;55.748;48.752;2023-08-31T10:07:13;99145.69;;;20.23;44.41
42603;BME280;28233;55.748;48.752;2023-08-31T10:09:17;99148.84;;;20.08;44.36
42603;BME280;28233;55.748;48.752;2023-08-31T10:11:20;99149.66;;;20.15;44.84
42603;BME280;28233;55.748;48.752;2023-08-31T10:13:25;99145.31;;;20.28;44.89
42603;BME280;28233;55.748;48.752;2023-08-31T10:15:32;99150.50;;;20.41;43.93
42603;BME280;28233;55.748;48.752;2023-08-31T10:17:42;99159.66;;;20.34;43.81
42603;BME280;28233;55.748;48.752;2023-08-31T10:19:46;99147.72;;;20.48;43.02
42603;BME280;28233;55.748;48.752;2023-08-31T10:21:49;99143.78;;;20.63;43.43
42603;BME280;28233;55.748;48.752;2023-08-31T10:23:52;99154.16;;;20.70;41.82
42603;BME280;28233;55.748;48.752;2023-08-31T10:27:58;99159.31;;;20.64;43.02
42603;BME280;28233;55.748;48.752;2023-08-31T10:32:24;99154.09;;;20.45;42.96
42603;BME280;28233;55.748;48.752;2023-08-31T10:35:07;99157.69;;;20.49;43.18
42603;BME280;28233;55.748;48.752;2023-08-31T10:37:30;99154.53;;;20.76;43.25
42603;BME280;28233;55.748;48.752;2023-08-31T10:39:38;99148.91;;;21.04;43.27
42603;BME280;28233;55.748;48.752;2023-08-31T10:41:42;99150.47;;;21.41;42.06
42603;BME280;28233;55.748;48.752;2023-08-31T10:45:54;99153.25;;;21.41;41.34
42603;BME280;28233;55.748;48.752;2023-08-31T10:48:01;99162.47;;;21.17;41.87
42603;BME280;28233;55.748;48.752;2023-08-31T10:50:22;99148.13;;;21.07;41.82
42603;BME280;28233;55.748;48.752;2023-08-31T10:52:28;99140.16;;;21.09;41.46
42603;BME280;28233;55.748;48.752;2023-08-31T10:54:37;99146.47;;;21.28;41.23
42603;BME280;28233;55.748;48.752;2023-08-31T10:57:04;99155.19;;;21.59;39.70
42603;BME280;28233;55.748;48.752;2023-08-31T10:59:11;99148.31;;;21.85;39.50
42603;BME280;28233;55.748;48.752;2023-08-31T11:03:59;99147.03;;;21.97;39.51